sensor_id;sensor_type;location;lat;lon;timestamp;P1;durP1;ratioP1;P2;durP2;ratioP2
3993;SDS011;2011;48.238;13.948;2024-03-29T00:01:27;6.90;;;5.00;;
3993;SDS011;2011;48.238;13.948;2024-03-29T00:03:53;7.43;;;4.17;;
3993;SDS011;2011;48.238;13.948;2024-03-29T00:06:19;5.17;;;3.73;;
3993;SDS011;2011;48.238;13.948;2024-03-29T00:08:45;13.20;;;6.53;;
3993;SDS011;2011;48.238;13.948;2024-03-29T00:11:11;5.27;;;4.20;;
3993;SDS011;2011;48.238;13.948;2024-03-29T00:13:37;9.47;;;4.17;;
3993;SDS011;2011;48.238;13.948;2024-03-29T00:16:03;6.20;;;4.27;;
3993;SDS011;2011;48.238;13.948;2024-03-29T00:18:31;8.10;;;6.00;;
3993;SDS011;2011;48.238;13.948;2024-03-29T00:20:57;8.03;;;5.00;;
3993;SDS011;2011;48.238;13.948;2024-03-29T00:23:23;12.70;;;7.17;;
3993;SDS011;2011;48.238;13.948;2024-03-29T00:25:49;9.90;;;7.40;;
3993;SDS011;2011;48.238;13.948;2024-03-29T00:28:15;12.20;;;8.40;;
3993;SDS011;2011;48.238;13.948;2024-03-29T00:30:41;12.80;;;8.27;;
3993;SDS011;2011;48.238;13.948;2024-03-29T00:33:07;11.57;;;8.10;;
3993;SDS011;2011;48.238;13.948;2024-03-29T00:35:34;9.50;;;7.47;;
3993;SDS011;2011;48.238;13.948;2024-03-29T00:38:00;11.90;;;8.23;;
3993;SDS011;2011;48.238;13.948;2024-03-29T00:40:27;12.73;;;7.40;;
3993;SDS011;2011;48.238;13.948;2024-03-29T00:42:53;11.17;;;7.73;;
3993;SDS011;2011;48.238;13.948;2024-03-29T00:45:19;13.50;;;7.87;;
3993;SDS011;2011;48.238;13.948;2024-03-29T00:47:45;12.00;;;7.63;;
3993;SDS011;2011;48.238;13.948;2024-03-29T00:50:11;14.53;;;9.27;;
3993;SDS011;2011;48.238;13.948;2024-03-29T00:52:38;12.53;;;9.23;;
3993;SDS011;2011;48.238;13.948;2024-03-29T00:55:05;12.33;;;8.70;;
3993;SDS011;2011;48.238;13.948;2024-03-29T00:57:31;14.37;;;8.73;;
3993;SDS011;2011;48.238;13.948;2024-03-29T00:59:57;16.57;;;10.70;;
3993;SDS011;2011;48.238;13.948;2024-03-29T01:02:23;12.77;;;9.10;;
3993;SDS011;2011;48.238;13.948;2024-03-29T01:04:49;12.83;;;8.80;;
3993;SDS011;2011;48.238;13.948;2024-03-29T01:07:16;12.50;;;8.87;;
3993;SDS011;2011;48.238;13.948;2024-03-29T01:09:43;12.37;;;9.37;;
3993;SDS011;2011;48.238;13.948;2024-03-29T01:12:10;12.83;;;8.60;;
3993;SDS011;2011;48.238;13.948;2024-03-29T01:14:36;9.97;;;7.50;;
3993;SDS011;2011;48.238;13.948;2024-03-29T01:17:02;10.20;;;7.10;;
3993;SDS011;2011;48.238;13.948;2024-03-29T01:19:29;12.57;;;8.63;;
3993;SDS011;2011;48.238;13.948;2024-03-29T01:21:55;15.33;;;8.57;;
3993;SDS011;2011;48.238;13.948;2024-03-29T01:24:21;41.77;;;14.30;;
3993;SDS011;2011;48.238;13.948;2024-03-29T01:26:48;37.77;;;10.20;;
3993;SDS011;2011;48.238;13.948;2024-03-29T01:29:14;13.10;;;7.80;;
3993;SDS011;2011;48.238;13.948;2024-03-29T01:31:40;63.67;;;24.77;;
3993;SDS011;2011;48.238;13.948;2024-03-29T01:34:07;14.33;;;9.00;;
3993;SDS011;2011;48.238;13.948;2024-03-29T01:36:33;16.13;;;8.50;;
3993;SDS011;2011;48.238;13.948;2024-03-29T01:38:59;13.40;;;8.40;;
3993;SDS011;2011;48.238;13.948;2024-03-29T01:41:25;11.70;;;8.40;;
3993;SDS011;2011;48.238;13.948;2024-03-29T01:43:52;17.30;;;9.50;;
3993;SDS011;2011;48.238;13.948;2024-03-29T01:46:20;13.10;;;8.37;;
3993;SDS011;2011;48.238;13.948;2024-03-29T01:48:49;11.90;;;8.07;;
3993;SDS011;2011;48.238;13.948;2024-03-29T01:51:16;17.23;;;7.77;;
3993;SDS011;2011;48.238;13.948;2024-03-29T01:53:44;13.20;;;8.73;;
3993;SDS011;2011;48.238;13.948;2024-03-29T01:56:13;14.33;;;9.90;;
3993;SDS011;2011;48.238;13.948;2024-03-29T01:58:40;18.60;;;10.70;;
3993;SDS011;2011;48.238;13.948;2024-03-29T02:01:11;11.93;;;9.20;;
3993;SDS011;2011;48.238;13.948;2024-03-29T02:03:39;13.30;;;9.17;;
3993;SDS011;2011;48.238;13.948;2024-03-29T02:06:06;16.43;;;11.00;;
3993;SDS011;2011;48.238;13.948;2024-03-29T02:08:35;17.43;;;11.10;;
3993;SDS011;2011;48.238;13.948;2024-03-29T02:11:02;20.53;;;11.70;;
3993;SDS011;2011;48.238;13.948;2024-03-29T02:13:30;14.63;;;10.50;;
3993;SDS011;2011;48.238;13.948;2024-03-29T02:15:57;15.17;;;9.27;;
3993;SDS011;2011;48.238;13.948;2024-03-29T02:18:26;13.43;;;9.80;;
3993;SDS011;2011;48.238;13.948;2024-03-29T02:20:52;15.07;;;10.60;;
3993;SDS011;2011;48.238;13.948;2024-03-29T02:23:20;13.80;;;9.20;;
3993;SDS011;2011;48.238;13.948;2024-03-29T02:25:55;15.20;;;8.47;;
3993;SDS011;2011;48.238;13.948;2024-03-29T02:28:22;15.00;;;8.77;;
3993;SDS011;2011;48.238;13.948;2024-03-29T02:30:50;12.27;;;8.90;;
3993;SDS011;2011;48.238;13.948;2024-03-29T02:33:16;11.90;;;8.40;;
3993;SDS011;2011;48.238;13.948;2024-03-29T02:35:43;14.40;;;8.47;;
3993;SDS011;2011;48.238;13.948;2024-03-29T02:38:10;13.13;;;8.57;;
3993;SDS011;2011;48.238;13.948;2024-03-29T02:40:37;13.93;;;8.67;;
3993;SDS011;2011;48.238;13.948;2024-03-29T02:43:06;13.47;;;8.90;;
3993;SDS011;2011;48.238;13.948;2024-03-29T02:45:32;10.37;;;6.87;;
3993;SDS011;2011;48.238;13.948;2024-03-29T02:48:00;11.27;;;7.00;;
3993;SDS011;2011;48.238;13.948;2024-03-29T02:50:27;10.17;;;6.97;;
3993;SDS011;2011;48.238;13.948;2024-03-29T02:52:53;11.90;;;8.13;;
3993;SDS011;2011;48.238;13.948;2024-03-29T02:55:20;12.53;;;7.30;;
3993;SDS011;2011;48.238;13.948;2024-03-29T02:57:46;10.30;;;7.33;;
3993;SDS011;2011;48.238;13.948;2024-03-29T03:00:15;13.10;;;7.77;;
3993;SDS011;2011;48.238;13.948;2024-03-29T03:02:41;13.77;;;8.10;;
3993;SDS011;2011;48.238;13.948;2024-03-29T03:05:08;10.53;;;7.33;;
3993;SDS011;2011;48.238;13.948;2024-03-29T03:07:34;10.73;;;7.50;;
3993;SDS011;2011;48.238;13.948;2024-03-29T03:10:19;14.10;;;9.07;;
3993;SDS011;2011;48.238;13.948;2024-03-29T03:13:04;11.43;;;7.80;;
3993;SDS011;2011;48.238;13.948;2024-03-29T03:15:32;9.97;;;6.93;;
3993;SDS011;2011;48.238;13.948;2024-03-29T03:17:59;15.33;;;9.63;;
3993;SDS011;2011;48.238;13.948;2024-03-29T03:20:26;25.00;;;8.73;;
3993;SDS011;2011;48.238;13.948;2024-03-29T03:22:55;71.73;;;9.73;;
3993;SDS011;2011;48.238;13.948;2024-03-29T03:25:22;102.57;;;11.23;;
3993;SDS011;2011;48.238;13.948;2024-03-29T03:27:49;21.80;;;10.80;;
3993;SDS011;2011;48.238;13.948;2024-03-29T03:30:16;211.37;;;14.83;;
3993;SDS011;2011;48.238;13.948;2024-03-29T03:32:44;171.17;;;15.47;;
3993;SDS011;2011;48.238;13.948;2024-03-29T03:35:11;22.63;;;10.30;;
3993;SDS011;2011;48.238;13.948;2024-03-29T03:37:37;18.17;;;9.90;;
3993;SDS011;2011;48.238;13.948;2024-03-29T03:40:04;119.68;;;14.07;;
3993;SDS011;2011;48.238;13.948;2024-03-29T03:42:31;22.13;;;9.63;;
3993;SDS011;2011;48.238;13.948;2024-03-29T03:44:58;86.37;;;12.03;;
3993;SDS011;2011;48.238;13.948;2024-03-29T03:47:24;72.85;;;13.68;;
3993;SDS011;2011;48.238;13.948;2024-03-29T03:49:53;25.83;;;13.37;;
3993;SDS011;2011;48.238;13.948;2024-03-29T03:52:19;24.27;;;13.37;;
3993;SDS011;2011;48.238;13.948;2024-03-29T03:54:46;26.37;;;13.70;;
3993;SDS011;2011;48.238;13.948;2024-03-29T03:57:12;22.50;;;12.90;;
3993;SDS011;2011;48.238;13.948;2024-03-29T03:59:39;21.00;;;12.63;;
3993;SDS011;2011;48.238;13.948;2024-03-29T04:02:05;174.90;;;15.47;;
3993;SDS011;2011;48.238;13.948;2024-03-29T04:04:32;29.37;;;11.40;;
3993;SDS011;2011;48.238;13.948;2024-03-29T04:06:59;155.70;;;17.20;;
3993;SDS011;2011;48.238;13.948;2024-03-29T04:09:27;62.37;;;12.70;;
3993;SDS011;2011;48.238;13.948;2024-03-29T04:11:53;27.37;;;12.07;;
3993;SDS011;2011;48.238;13.948;2024-03-29T04:14:20;21.00;;;11.60;;
3993;SDS011;2011;48.238;13.948;2024-03-29T04:16:47;18.83;;;10.43;;
3993;SDS011;2011;48.238;13.948;2024-03-29T04:19:13;17.47;;;10.33;;
3993;SDS011;2011;48.238;13.948;2024-03-29T04:21:40;15.27;;;9.27;;
3993;SDS011;2011;48.238;13.948;2024-03-29T04:24:08;11.90;;;8.00;;
3993;SDS011;2011;48.238;13.948;2024-03-29T04:26:35;12.17;;;7.97;;
3993;SDS011;2011;48.238;13.948;2024-03-29T04:29:02;12.90;;;8.07;;
3993;SDS011;2011;48.238;13.948;2024-03-29T04:31:29;11.83;;;8.13;;
3993;SDS011;2011;48.238;13.948;2024-03-29T04:33:55;12.83;;;9.03;;
3993;SDS011;2011;48.238;13.948;2024-03-29T04:36:22;13.67;;;8.60;;
3993;SDS011;2011;48.238;13.948;2024-03-29T04:38:48;13.17;;;8.70;;
3993;SDS011;2011;48.238;13.948;2024-03-29T04:41:16;13.53;;;8.40;;
3993;SDS011;2011;48.238;13.948;2024-03-29T04:43:43;12.48;;;8.60;;
3993;SDS011;2011;48.238;13.948;2024-03-29T04:46:11;15.40;;;10.25;;
3993;SDS011;2011;48.238;13.948;2024-03-29T04:48:39;18.63;;;10.57;;
3993;SDS011;2011;48.238;13.948;2024-03-29T04:51:07;13.60;;;9.43;;
3993;SDS011;2011;48.238;13.948;2024-03-29T04:53:35;12.50;;;7.27;;
3993;SDS011;2011;48.238;13.948;2024-03-29T04:56:02;14.00;;;8.33;;
3993;SDS011;2011;48.238;13.948;2024-03-29T04:58:31;14.60;;;8.10;;
3993;SDS011;2011;48.238;13.948;2024-03-29T05:00:58;13.80;;;6.90;;
3993;SDS011;2011;48.238;13.948;2024-03-29T05:03:25;8.37;;;5.07;;
3993;SDS011;2011;48.238;13.948;2024-03-29T05:05:52;6.97;;;4.90;;
3993;SDS011;2011;48.238;13.948;2024-03-29T05:08:19;6.75;;;4.20;;
3993;SDS011;2011;48.238;13.948;2024-03-29T05:10:48;6.80;;;4.50;;
3993;SDS011;2011;48.238;13.948;2024-03-29T05:13:15;6.57;;;4.07;;
3993;SDS011;2011;48.238;13.948;2024-03-29T05:15:44;6.37;;;4.13;;
3993;SDS011;2011;48.238;13.948;2024-03-29T05:18:11;7.03;;;4.23;;
3993;SDS011;2011;48.238;13.948;2024-03-29T05:20:38;6.07;;;3.57;;
3993;SDS011;2011;48.238;13.948;2024-03-29T05:23:06;6.20;;;3.67;;
3993;SDS011;2011;48.238;13.948;2024-03-29T05:25:33;6.43;;;3.50;;
3993;SDS011;2011;48.238;13.948;2024-03-29T05:28:00;6.93;;;3.17;;
3993;SDS011;2011;48.238;13.948;2024-03-29T05:30:27;6.83;;;3.50;;
3993;SDS011;2011;48.238;13.948;2024-03-29T05:32:55;10.40;;;3.10;;
3993;SDS011;2011;48.238;13.948;2024-03-29T05:35:22;7.13;;;4.32;;
3993;SDS011;2011;48.238;13.948;2024-03-29T05:37:49;8.80;;;3.30;;
3993;SDS011;2011;48.238;13.948;2024-03-29T05:40:18;5.90;;;3.50;;
3993;SDS011;2011;48.238;13.948;2024-03-29T05:42:50;4.90;;;3.63;;
3993;SDS011;2011;48.238;13.948;2024-03-29T05:45:24;9.07;;;4.67;;
3993;SDS011;2011;48.238;13.948;2024-03-29T05:47:52;8.93;;;5.73;;
3993;SDS011;2011;48.238;13.948;2024-03-29T05:50:21;6.87;;;4.50;;
3993;SDS011;2011;48.238;13.948;2024-03-29T05:52:49;6.10;;;3.80;;
3993;SDS011;2011;48.238;13.948;2024-03-29T05:55:16;8.20;;;6.10;;
3993;SDS011;2011;48.238;13.948;2024-03-29T05:57:44;8.90;;;4.53;;
3993;SDS011;2011;48.238;13.948;2024-03-29T06:00:11;7.63;;;4.30;;
3993;SDS011;2011;48.238;13.948;2024-03-29T06:02:41;7.10;;;4.40;;
3993;SDS011;2011;48.238;13.948;2024-03-29T06:05:09;5.67;;;3.70;;
3993;SDS011;2011;48.238;13.948;2024-03-29T06:07:38;7.83;;;3.70;;
3993;SDS011;2011;48.238;13.948;2024-03-29T06:10:05;7.20;;;4.33;;
3993;SDS011;2011;48.238;13.948;2024-03-29T06:12:34;6.23;;;3.70;;
3993;SDS011;2011;48.238;13.948;2024-03-29T06:15:01;8.00;;;4.30;;
3993;SDS011;2011;48.238;13.948;2024-03-29T06:17:46;5.20;;;2.90;;
3993;SDS011;2011;48.238;13.948;2024-03-29T06:20:13;5.50;;;3.27;;
3993;SDS011;2011;48.238;13.948;2024-03-29T06:22:41;5.60;;;3.93;;
3993;SDS011;2011;48.238;13.948;2024-03-29T06:25:09;4.73;;;2.10;;
3993;SDS011;2011;48.238;13.948;2024-03-29T06:27:36;4.57;;;2.40;;
3993;SDS011;2011;48.238;13.948;2024-03-29T06:30:04;3.70;;;1.97;;
3993;SDS011;2011;48.238;13.948;2024-03-29T06:32:33;2.57;;;1.80;;
3993;SDS011;2011;48.238;13.948;2024-03-29T06:35:00;3.30;;;2.03;;
3993;SDS011;2011;48.238;13.948;2024-03-29T06:37:27;2.80;;;2.20;;
3993;SDS011;2011;48.238;13.948;2024-03-29T06:39:56;5.17;;;1.80;;
3993;SDS011;2011;48.238;13.948;2024-03-29T06:42:23;4.00;;;2.10;;
3993;SDS011;2011;48.238;13.948;2024-03-29T06:44:50;3.13;;;1.70;;
3993;SDS011;2011;48.238;13.948;2024-03-29T06:47:17;4.93;;;1.97;;
3993;SDS011;2011;48.238;13.948;2024-03-29T06:49:44;2.80;;;1.70;;
3993;SDS011;2011;48.238;13.948;2024-03-29T06:52:12;4.10;;;2.00;;
3993;SDS011;2011;48.238;13.948;2024-03-29T06:54:39;2.53;;;1.70;;
3993;SDS011;2011;48.238;13.948;2024-03-29T06:57:07;3.53;;;1.77;;
3993;SDS011;2011;48.238;13.948;2024-03-29T06:59:37;2.53;;;2.00;;
3993;SDS011;2011;48.238;13.948;2024-03-29T07:02:04;5.17;;;1.50;;
3993;SDS011;2011;48.238;13.948;2024-03-29T07:04:31;8.10;;;1.60;;
3993;SDS011;2011;48.238;13.948;2024-03-29T07:06:58;2.60;;;1.40;;
3993;SDS011;2011;48.238;13.948;2024-03-29T07:09:26;3.83;;;1.30;;
3993;SDS011;2011;48.238;13.948;2024-03-29T07:11:53;3.30;;;1.33;;
3993;SDS011;2011;48.238;13.948;2024-03-29T07:14:21;4.07;;;1.20;;
3993;SDS011;2011;48.238;13.948;2024-03-29T07:16:48;4.23;;;1.50;;
3993;SDS011;2011;48.238;13.948;2024-03-29T07:19:15;9.50;;;1.60;;
3993;SDS011;2011;48.238;13.948;2024-03-29T07:21:44;2.47;;;1.47;;
3993;SDS011;2011;48.238;13.948;2024-03-29T07:24:11;1.80;;;1.17;;
3993;SDS011;2011;48.238;13.948;2024-03-29T07:26:38;2.90;;;1.27;;
3993;SDS011;2011;48.238;13.948;2024-03-29T07:29:05;2.20;;;1.10;;
3993;SDS011;2011;48.238;13.948;2024-03-29T07:31:33;2.37;;;0.90;;
3993;SDS011;2011;48.238;13.948;2024-03-29T07:34:00;2.70;;;1.10;;
3993;SDS011;2011;48.238;13.948;2024-03-29T07:36:27;2.57;;;1.30;;
3993;SDS011;2011;48.238;13.948;2024-03-29T07:38:59;3.10;;;1.23;;
3993;SDS011;2011;48.238;13.948;2024-03-29T07:41:26;4.50;;;1.10;;
3993;SDS011;2011;48.238;13.948;2024-03-29T07:43:54;2.50;;;1.23;;
3993;SDS011;2011;48.238;13.948;2024-03-29T07:46:27;2.70;;;0.90;;
3993;SDS011;2011;48.238;13.948;2024-03-29T07:48:56;2.23;;;0.90;;
3993;SDS011;2011;48.238;13.948;2024-03-29T07:51:23;3.40;;;0.97;;
3993;SDS011;2011;48.238;13.948;2024-03-29T07:53:50;2.47;;;0.90;;
3993;SDS011;2011;48.238;13.948;2024-03-29T07:56:17;2.13;;;1.13;;
3993;SDS011;2011;48.238;13.948;2024-03-29T07:58:45;4.53;;;1.23;;
3993;SDS011;2011;48.238;13.948;2024-03-29T08:01:17;3.50;;;1.30;;
3993;SDS011;2011;48.238;13.948;2024-03-29T08:03:44;2.67;;;1.07;;
3993;SDS011;2011;48.238;13.948;2024-03-29T08:06:12;2.47;;;1.20;;
3993;SDS011;2011;48.238;13.948;2024-03-29T08:08:41;3.50;;;1.40;;
3993;SDS011;2011;48.238;13.948;2024-03-29T08:11:08;2.27;;;1.10;;
3993;SDS011;2011;48.238;13.948;2024-03-29T08:13:36;1.90;;;1.00;;
3993;SDS011;2011;48.238;13.948;2024-03-29T08:16:04;2.20;;;1.10;;
3993;SDS011;2011;48.238;13.948;2024-03-29T08:18:32;2.23;;;1.00;;
3993;SDS011;2011;48.238;13.948;2024-03-29T08:20:59;1.80;;;0.80;;
3993;SDS011;2011;48.238;13.948;2024-03-29T08:23:28;2.90;;;1.10;;
3993;SDS011;2011;48.238;13.948;2024-03-29T08:25:56;3.93;;;1.27;;
3993;SDS011;2011;48.238;13.948;2024-03-29T08:28:22;3.40;;;1.33;;
3993;SDS011;2011;48.238;13.948;2024-03-29T08:30:59;2.30;;;1.03;;
3993;SDS011;2011;48.238;13.948;2024-03-29T08:33:26;3.63;;;1.30;;
3993;SDS011;2011;48.238;13.948;2024-03-29T08:35:53;6.70;;;1.50;;
3993;SDS011;2011;48.238;13.948;2024-03-29T08:38:20;3.70;;;1.67;;
3993;SDS011;2011;48.238;13.948;2024-03-29T08:40:49;2.90;;;1.20;;
3993;SDS011;2011;48.238;13.948;2024-03-29T08:43:16;2.90;;;1.33;;
3993;SDS011;2011;48.238;13.948;2024-03-29T08:45:44;4.60;;;1.07;;
3993;SDS011;2011;48.238;13.948;2024-03-29T08:48:10;3.00;;;1.27;;
3993;SDS011;2011;48.238;13.948;2024-03-29T08:50:37;3.83;;;1.17;;
3993;SDS011;2011;48.238;13.948;2024-03-29T08:53:05;2.70;;;1.30;;
3993;SDS011;2011;48.238;13.948;2024-03-29T08:55:32;3.17;;;1.23;;
3993;SDS011;2011;48.238;13.948;2024-03-29T08:58:03;4.47;;;1.20;;
3993;SDS011;2011;48.238;13.948;2024-03-29T09:00:30;17.83;;;1.37;;
3993;SDS011;2011;48.238;13.948;2024-03-29T09:02:57;6.83;;;1.30;;
3993;SDS011;2011;48.238;13.948;2024-03-29T09:05:24;5.07;;;1.50;;
3993;SDS011;2011;48.238;13.948;2024-03-29T09:07:54;3.23;;;1.20;;
3993;SDS011;2011;48.238;13.948;2024-03-29T09:10:21;2.90;;;1.23;;
3993;SDS011;2011;48.238;13.948;2024-03-29T09:12:48;3.50;;;1.13;;
3993;SDS011;2011;48.238;13.948;2024-03-29T09:15:16;3.40;;;1.17;;
3993;SDS011;2011;48.238;13.948;2024-03-29T09:17:43;2.80;;;1.00;;
3993;SDS011;2011;48.238;13.948;2024-03-29T09:20:11;6.27;;;1.27;;
3993;SDS011;2011;48.238;13.948;2024-03-29T09:22:38;3.70;;;1.30;;
3993;SDS011;2011;48.238;13.948;2024-03-29T09:25:05;4.13;;;1.73;;
3993;SDS011;2011;48.238;13.948;2024-03-29T09:27:34;2.97;;;1.43;;
3993;SDS011;2011;48.238;13.948;2024-03-29T09:30:02;3.50;;;1.20;;
3993;SDS011;2011;48.238;13.948;2024-03-29T09:32:32;7.63;;;1.00;;
3993;SDS011;2011;48.238;13.948;2024-03-29T09:34:59;7.43;;;1.50;;
3993;SDS011;2011;48.238;13.948;2024-03-29T09:37:26;4.90;;;1.67;;
3993;SDS011;2011;48.238;13.948;2024-03-29T09:39:53;3.67;;;1.20;;
3993;SDS011;2011;48.238;13.948;2024-03-29T09:42:21;2.70;;;1.27;;
3993;SDS011;2011;48.238;13.948;2024-03-29T09:44:50;3.07;;;1.00;;
3993;SDS011;2011;48.238;13.948;2024-03-29T09:47:17;5.80;;;1.80;;
3993;SDS011;2011;48.238;13.948;2024-03-29T09:49:46;3.30;;;1.30;;
3993;SDS011;2011;48.238;13.948;2024-03-29T09:52:15;3.40;;;1.07;;
3993;SDS011;2011;48.238;13.948;2024-03-29T09:54:43;3.30;;;1.20;;
3993;SDS011;2011;48.238;13.948;2024-03-29T09:57:10;3.40;;;1.40;;
3993;SDS011;2011;48.238;13.948;2024-03-29T09:59:39;12.40;;;1.70;;
3993;SDS011;2011;48.238;13.948;2024-03-29T10:02:09;4.13;;;1.40;;
3993;SDS011;2011;48.238;13.948;2024-03-29T10:04:42;4.33;;;1.10;;
3993;SDS011;2011;48.238;13.948;2024-03-29T10:07:10;3.93;;;1.30;;
3993;SDS011;2011;48.238;13.948;2024-03-29T10:09:40;4.40;;;1.40;;
3993;SDS011;2011;48.238;13.948;2024-03-29T10:12:07;4.13;;;1.30;;
3993;SDS011;2011;48.238;13.948;2024-03-29T10:14:42;2.70;;;1.20;;
3993;SDS011;2011;48.238;13.948;2024-03-29T10:17:14;3.67;;;1.10;;
3993;SDS011;2011;48.238;13.948;2024-03-29T10:19:43;3.10;;;1.30;;
3993;SDS011;2011;48.238;13.948;2024-03-29T10:22:12;5.77;;;1.33;;
3993;SDS011;2011;48.238;13.948;2024-03-29T10:24:39;4.83;;;2.07;;
3993;SDS011;2011;48.238;13.948;2024-03-29T10:27:06;4.63;;;1.80;;
3993;SDS011;2011;48.238;13.948;2024-03-29T10:29:33;2.67;;;1.10;;
3993;SDS011;2011;48.238;13.948;2024-03-29T10:32:00;2.73;;;1.20;;
3993;SDS011;2011;48.238;13.948;2024-03-29T10:34:29;12.30;;;1.50;;
3993;SDS011;2011;48.238;13.948;2024-03-29T10:36:59;4.17;;;1.30;;
3993;SDS011;2011;48.238;13.948;2024-03-29T10:39:30;4.37;;;1.40;;
3993;SDS011;2011;48.238;13.948;2024-03-29T10:41:59;4.23;;;1.30;;
3993;SDS011;2011;48.238;13.948;2024-03-29T10:44:28;4.10;;;1.40;;
3993;SDS011;2011;48.238;13.948;2024-03-29T10:46:56;3.73;;;1.20;;
3993;SDS011;2011;48.238;13.948;2024-03-29T10:49:24;10.60;;;1.50;;
3993;SDS011;2011;48.238;13.948;2024-03-29T10:51:52;4.87;;;1.60;;
3993;SDS011;2011;48.238;13.948;2024-03-29T10:54:22;2.47;;;1.07;;
3993;SDS011;2011;48.238;13.948;2024-03-29T10:56:56;6.07;;;1.33;;
3993;SDS011;2011;48.238;13.948;2024-03-29T10:59:27;5.53;;;1.00;;
3993;SDS011;2011;48.238;13.948;2024-03-29T11:02:05;6.63;;;1.10;;
3993;SDS011;2011;48.238;13.948;2024-03-29T11:04:39;3.37;;;1.27;;
3993;SDS011;2011;48.238;13.948;2024-03-29T11:07:10;6.17;;;1.13;;
3993;SDS011;2011;48.238;13.948;2024-03-29T11:09:41;8.57;;;1.20;;
3993;SDS011;2011;48.238;13.948;2024-03-29T11:12:11;3.50;;;1.10;;
3993;SDS011;2011;48.238;13.948;2024-03-29T11:14:42;2.80;;;1.00;;
3993;SDS011;2011;48.238;13.948;2024-03-29T11:17:13;6.90;;;1.00;;
3993;SDS011;2011;48.238;13.948;2024-03-29T11:19:40;2.63;;;0.90;;
3993;SDS011;2011;48.238;13.948;2024-03-29T11:22:08;3.33;;;1.23;;
3993;SDS011;2011;48.238;13.948;2024-03-29T11:24:35;3.47;;;1.20;;
3993;SDS011;2011;48.238;13.948;2024-03-29T11:27:09;2.40;;;0.90;;
3993;SDS011;2011;48.238;13.948;2024-03-29T11:29:38;6.30;;;1.00;;
3993;SDS011;2011;48.238;13.948;2024-03-29T11:32:10;3.50;;;1.10;;
3993;SDS011;2011;48.238;13.948;2024-03-29T11:34:43;6.40;;;1.20;;
3993;SDS011;2011;48.238;13.948;2024-03-29T11:37:11;3.37;;;1.10;;
3993;SDS011;2011;48.238;13.948;2024-03-29T11:39:39;2.90;;;0.90;;
3993;SDS011;2011;48.238;13.948;2024-03-29T11:42:06;3.80;;;1.10;;
3993;SDS011;2011;48.238;13.948;2024-03-29T11:44:33;2.77;;;0.90;;
3993;SDS011;2011;48.238;13.948;2024-03-29T11:47:02;3.07;;;1.20;;
3993;SDS011;2011;48.238;13.948;2024-03-29T11:49:33;3.20;;;0.90;;
3993;SDS011;2011;48.238;13.948;2024-03-29T11:52:04;3.67;;;1.23;;
3993;SDS011;2011;48.238;13.948;2024-03-29T11:54:37;8.87;;;1.10;;
3993;SDS011;2011;48.238;13.948;2024-03-29T11:57:05;3.10;;;1.00;;
3993;SDS011;2011;48.238;13.948;2024-03-29T11:59:32;4.33;;;1.17;;
3993;SDS011;2011;48.238;13.948;2024-03-29T12:01:59;4.30;;;1.03;;
3993;SDS011;2011;48.238;13.948;2024-03-29T12:04:27;13.97;;;1.13;;
3993;SDS011;2011;48.238;13.948;2024-03-29T12:06:54;5.00;;;0.97;;
3993;SDS011;2011;48.238;13.948;2024-03-29T12:09:21;2.60;;;0.83;;
3993;SDS011;2011;48.238;13.948;2024-03-29T12:11:48;3.50;;;0.90;;
3993;SDS011;2011;48.238;13.948;2024-03-29T12:14:16;3.60;;;1.00;;
3993;SDS011;2011;48.238;13.948;2024-03-29T12:16:43;3.00;;;0.93;;
3993;SDS011;2011;48.238;13.948;2024-03-29T12:19:21;6.27;;;1.47;;
3993;SDS011;2011;48.238;13.948;2024-03-29T12:21:50;3.50;;;1.10;;
3993;SDS011;2011;48.238;13.948;2024-03-29T12:24:18;6.50;;;1.10;;
3993;SDS011;2011;48.238;13.948;2024-03-29T12:26:47;3.23;;;1.07;;
3993;SDS011;2011;48.238;13.948;2024-03-29T12:29:15;7.60;;;1.00;;
3993;SDS011;2011;48.238;13.948;2024-03-29T12:31:42;5.33;;;1.00;;
3993;SDS011;2011;48.238;13.948;2024-03-29T12:34:09;3.70;;;1.00;;
3993;SDS011;2011;48.238;13.948;2024-03-29T12:36:36;3.30;;;1.00;;
3993;SDS011;2011;48.238;13.948;2024-03-29T12:39:05;4.17;;;1.20;;
3993;SDS011;2011;48.238;13.948;2024-03-29T12:41:32;3.13;;;1.07;;
3993;SDS011;2011;48.238;13.948;2024-03-29T12:44:00;3.73;;;1.00;;
3993;SDS011;2011;48.238;13.948;2024-03-29T12:46:27;4.40;;;1.40;;
3993;SDS011;2011;48.238;13.948;2024-03-29T12:48:58;3.23;;;1.00;;
3993;SDS011;2011;48.238;13.948;2024-03-29T12:51:26;4.73;;;1.20;;
3993;SDS011;2011;48.238;13.948;2024-03-29T12:53:53;3.70;;;1.10;;
3993;SDS011;2011;48.238;13.948;2024-03-29T12:56:29;3.30;;;1.10;;
3993;SDS011;2011;48.238;13.948;2024-03-29T12:58:56;3.87;;;1.10;;
3993;SDS011;2011;48.238;13.948;2024-03-29T13:01:23;3.43;;;1.20;;
3993;SDS011;2011;48.238;13.948;2024-03-29T13:03:50;3.50;;;1.10;;
3993;SDS011;2011;48.238;13.948;2024-03-29T13:06:17;7.67;;;1.20;;
3993;SDS011;2011;48.238;13.948;2024-03-29T13:08:44;2.87;;;1.00;;
3993;SDS011;2011;48.238;13.948;2024-03-29T13:11:11;11.80;;;1.40;;
3993;SDS011;2011;48.238;13.948;2024-03-29T13:13:40;5.70;;;1.20;;
3993;SDS011;2011;48.238;13.948;2024-03-29T13:16:07;3.50;;;1.03;;
3993;SDS011;2011;48.238;13.948;2024-03-29T13:18:35;4.40;;;1.13;;
3993;SDS011;2011;48.238;13.948;2024-03-29T13:21:02;3.53;;;1.03;;
3993;SDS011;2011;48.238;13.948;2024-03-29T13:23:29;5.27;;;1.07;;
3993;SDS011;2011;48.238;13.948;2024-03-29T13:25:57;7.10;;;1.13;;
3993;SDS011;2011;48.238;13.948;2024-03-29T13:28:25;4.17;;;1.00;;
3993;SDS011;2011;48.238;13.948;2024-03-29T13:30:53;3.27;;;1.07;;
3993;SDS011;2011;48.238;13.948;2024-03-29T13:33:22;6.67;;;1.30;;
3993;SDS011;2011;48.238;13.948;2024-03-29T13:35:52;4.47;;;1.17;;
3993;SDS011;2011;48.238;13.948;2024-03-29T13:38:20;5.70;;;1.23;;
3993;SDS011;2011;48.238;13.948;2024-03-29T13:40:48;3.77;;;1.13;;
3993;SDS011;2011;48.238;13.948;2024-03-29T13:43:16;6.40;;;1.10;;
3993;SDS011;2011;48.238;13.948;2024-03-29T13:45:43;3.10;;;0.97;;
3993;SDS011;2011;48.238;13.948;2024-03-29T13:48:11;5.30;;;1.20;;
3993;SDS011;2011;48.238;13.948;2024-03-29T13:50:38;5.30;;;1.20;;
3993;SDS011;2011;48.238;13.948;2024-03-29T13:53:05;5.40;;;1.07;;
3993;SDS011;2011;48.238;13.948;2024-03-29T13:55:32;4.43;;;0.90;;
3993;SDS011;2011;48.238;13.948;2024-03-29T13:58:00;3.40;;;1.07;;
3993;SDS011;2011;48.238;13.948;2024-03-29T14:00:28;3.30;;;1.10;;
3993;SDS011;2011;48.238;13.948;2024-03-29T14:02:55;4.57;;;1.10;;
3993;SDS011;2011;48.238;13.948;2024-03-29T14:05:24;6.63;;;1.30;;
3993;SDS011;2011;48.238;13.948;2024-03-29T14:07:50;3.70;;;1.07;;
3993;SDS011;2011;48.238;13.948;2024-03-29T14:10:17;3.97;;;0.97;;
3993;SDS011;2011;48.238;13.948;2024-03-29T14:12:45;4.30;;;1.20;;
3993;SDS011;2011;48.238;13.948;2024-03-29T14:15:12;3.30;;;1.10;;
3993;SDS011;2011;48.238;13.948;2024-03-29T14:17:39;3.03;;;1.07;;
3993;SDS011;2011;48.238;13.948;2024-03-29T14:20:07;5.50;;;1.30;;
3993;SDS011;2011;48.238;13.948;2024-03-29T14:22:37;9.90;;;1.30;;
3993;SDS011;2011;48.238;13.948;2024-03-29T14:25:05;4.87;;;1.30;;
3993;SDS011;2011;48.238;13.948;2024-03-29T14:27:35;4.50;;;1.13;;
3993;SDS011;2011;48.238;13.948;2024-03-29T14:30:11;4.10;;;1.10;;
3993;SDS011;2011;48.238;13.948;2024-03-29T14:32:40;6.80;;;1.33;;
3993;SDS011;2011;48.238;13.948;2024-03-29T14:35:10;6.77;;;1.20;;
3993;SDS011;2011;48.238;13.948;2024-03-29T14:37:39;6.70;;;1.17;;
3993;SDS011;2011;48.238;13.948;2024-03-29T14:40:06;4.07;;;1.10;;
3993;SDS011;2011;48.238;13.948;2024-03-29T14:42:34;4.00;;;1.00;;
3993;SDS011;2011;48.238;13.948;2024-03-29T14:45:02;4.50;;;1.20;;
3993;SDS011;2011;48.238;13.948;2024-03-29T14:47:31;4.00;;;1.20;;
3993;SDS011;2011;48.238;13.948;2024-03-29T14:49:59;3.73;;;1.30;;
3993;SDS011;2011;48.238;13.948;2024-03-29T14:52:26;3.50;;;1.20;;
3993;SDS011;2011;48.238;13.948;2024-03-29T14:54:54;4.37;;;1.20;;
3993;SDS011;2011;48.238;13.948;2024-03-29T14:57:21;3.60;;;1.20;;
3993;SDS011;2011;48.238;13.948;2024-03-29T14:59:48;6.73;;;1.10;;